sensor_id;sensor_type;location;lat;lon;timestamp;pressure;altitude;pressure_sealevel;temperature;humidity
57572;BME280;44459;43.522;24.470;2023-03-20T00:02:42;100539.16;;;3.87;96.47
57572;BME280;44459;43.522;24.470;2023-03-20T00:05:15;100544.16;;;3.81;97.04
57572;BME280;44459;43.522;24.470;2023-03-20T00:07:43;100538.75;;;3.77;96.71
57572;BME280;44459;43.522;24.470;2023-03-20T00:10:09;100544.75;;;3.74;97.00
57572;BME280;44459;43.522;24.470;2023-03-20T00:12:35;100541.03;;;3.68;96.59
57572;BME280;44459;43.522;24.470;2023-03-20T00:15:02;100539.25;;;3.68;96.96
57572;BME280;44459;43.522;24.470;2023-03-20T00:17:29;100530.28;;;3.60;96.82
57572;BME280;44459;43.522;24.470;2023-03-20T00:19:54;100542.44;;;3.60;96.75
57572;BME280;44459;43.522;24.470;2023-03-20T00:22:20;100539.72;;;3.57;96.49
57572;BME280;44459;43.522;24.470;2023-03-20T00:24:46;100524.66;;;3.49;96.87
57572;BME280;44459;43.522;24.470;2023-03-20T00:27:14;100537.81;;;3.52;96.61
57572;BME280;44459;43.522;24.470;2023-03-20T00:29:39;100527.25;;;3.49;97.55
57572;BME280;44459;43.522;24.470;2023-03-20T00:32:10;100524.56;;;3.48;97.78
57572;BME280;44459;43.522;24.470;2023-03-20T00:34:37;100521.72;;;3.42;97.82
57572;BME280;44459;43.522;24.470;2023-03-20T00:37:03;100518.94;;;3.37;97.77
57572;BME280;44459;43.522;24.470;2023-03-20T00:39:28;100520.66;;;3.37;97.81
57572;BME280;44459;43.522;24.470;2023-03-20T00:41:56;100524.16;;;3.37;98.30
57572;BME280;44459;43.522;24.470;2023-03-20T00:44:29;100521.38;;;3.33;98.16
57572;BME280;44459;43.522;24.470;2023-03-20T00:47:01;100519.72;;;3.35;98.89
57572;BME280;44459;43.522;24.470;2023-03-20T00:49:30;100514.50;;;3.35;99.53
57572;BME280;44459;43.522;24.470;2023-03-20T00:51:57;100511.88;;;3.35;99.58
57572;BME280;44459;43.522;24.470;2023-03-20T00:54:23;100507.56;;;3.35;99.72
57572;BME280;44459;43.522;24.470;2023-03-20T00:56:59;100513.69;;;3.36;99.32
57572;BME280;44459;43.522;24.470;2023-03-20T00:59:30;100509.16;;;3.32;99.33
57572;BME280;44459;43.522;24.470;2023-03-20T01:01:56;100509.03;;;3.29;99.19
57572;BME280;44459;43.522;24.470;2023-03-20T01:04:23;100501.03;;;3.24;98.98
57572;BME280;44459;43.522;24.470;2023-03-20T01:06:49;100497.38;;;3.19;98.81
57572;BME280;44459;43.522;24.470;2023-03-20T01:09:15;100494.50;;;3.13;99.38
57572;BME280;44459;43.522;24.470;2023-03-20T01:11:43;100501.50;;;3.14;99.43
57572;BME280;44459;43.522;24.470;2023-03-20T01:14:13;100504.00;;;3.11;99.10
57572;BME280;44459;43.522;24.470;2023-03-20T01:16:40;100504.75;;;3.09;99.30
57572;BME280;44459;43.522;24.470;2023-03-20T01:19:06;100495.19;;;3.09;99.00
57572;BME280;44459;43.522;24.470;2023-03-20T01:21:31;100497.66;;;3.04;98.88
57572;BME280;44459;43.522;24.470;2023-03-20T01:23:56;100497.53;;;3.01;99.06
57572;BME280;44459;43.522;24.470;2023-03-20T01:26:36;100494.72;;;2.97;98.70
57572;BME280;44459;43.522;24.470;2023-03-20T01:29:04;100498.16;;;2.96;99.43
57572;BME280;44459;43.522;24.470;2023-03-20T01:31:36;100489.38;;;2.94;99.90
57572;BME280;44459;43.522;24.470;2023-03-20T01:34:02;100497.34;;;2.97;100.00
57572;BME280;44459;43.522;24.470;2023-03-20T01:36:27;100493.81;;;2.96;100.00
57572;BME280;44459;43.522;24.470;2023-03-20T01:38:55;100501.00;;;3.02;100.00
57572;BME280;44459;43.522;24.470;2023-03-20T01:41:23;100489.22;;;3.12;100.00
57572;BME280;44459;43.522;24.470;2023-03-20T01:43:49;100498.88;;;3.14;100.00
57572;BME280;44459;43.522;24.470;2023-03-20T01:46:19;100486.56;;;3.10;100.00
57572;BME280;44459;43.522;24.470;2023-03-20T01:51:25;100493.56;;;3.11;100.00
57572;BME280;44459;43.522;24.470;2023-03-20T01:53:56;100501.31;;;3.10;100.00
57572;BME280;44459;43.522;24.470;2023-03-20T01:56:23;100487.38;;;3.09;100.00
57572;BME280;44459;43.522;24.470;2023-03-20T01:58:54;100489.22;;;3.12;100.00
57572;BME280;44459;43.522;24.470;2023-03-20T02:01:23;100484.03;;;3.12;100.00
57572;BME280;44459;43.522;24.470;2023-03-20T02:03:50;100484.59;;;3.04;100.00
57572;BME280;44459;43.522;24.470;2023-03-20T02:06:17;100489.88;;;3.06;100.00
57572;BME280;44459;43.522;24.470;2023-03-20T02:08:48;100496.88;;;3.07;100.00
57572;BME280;44459;43.522;24.470;2023-03-20T02:11:14;100489.81;;;3.04;100.00
57572;BME280;44459;43.522;24.470;2023-03-20T02:13:41;100479.91;;;2.96;100.00
57572;BME280;44459;43.522;24.470;2023-03-20T02:16:10;100484.41;;;3.00;100.00
57572;BME280;44459;43.522;24.470;2023-03-20T02:18:38;100486.97;;;2.98;100.00
57572;BME280;44459;43.522;24.470;2023-03-20T02:32:58;100481.38;;;2.89;100.00
57572;BME280;44459;43.522;24.470;2023-03-20T02:41:24;100481.00;;;2.80;100.00
57572;BME280;44459;43.522;24.470;2023-03-20T02:52:02;100483.94;;;2.67;100.00
57572;BME280;44459;43.522;24.470;2023-03-20T02:55:02;100475.84;;;2.61;100.00
57572;BME280;44459;43.522;24.470;2023-03-20T02:57:40;100481.75;;;2.57;100.00
57572;BME280;44459;43.522;24.470;2023-03-20T03:02:54;100474.59;;;2.51;100.00
57572;BME280;44459;43.522;24.470;2023-03-20T03:05:26;100460.31;;;2.42;100.00
57572;BME280;44459;43.522;24.470;2023-03-20T03:07:56;100466.44;;;2.44;100.00
57572;BME280;44459;43.522;24.470;2023-03-20T03:10:28;100474.91;;;2.38;100.00
57572;BME280;44459;43.522;24.470;2023-03-20T03:12:55;100473.81;;;2.33;100.00
57572;BME280;44459;43.522;24.470;2023-03-20T03:17:48;100472.28;;;2.18;100.00
57572;BME280;44459;43.522;24.470;2023-03-20T03:20:21;100467.84;;;2.15;100.00
57572;BME280;44459;43.522;24.470;2023-03-20T03:22:48;100472.16;;;2.15;100.00
57572;BME280;44459;43.522;24.470;2023-03-20T03:25:14;100472.97;;;2.14;100.00
57572;BME280;44459;43.522;24.470;2023-03-20T03:27:42;100469.25;;;2.09;100.00
57572;BME280;44459;43.522;24.470;2023-03-20T03:30:17;100468.13;;;2.02;100.00
57572;BME280;44459;43.522;24.470;2023-03-20T03:32:46;100464.47;;;1.98;100.00
57572;BME280;44459;43.522;24.470;2023-03-20T03:35:16;100477.63;;;2.01;100.00
57572;BME280;44459;43.522;24.470;2023-03-20T03:43:06;100476.34;;;1.92;100.00
57572;BME280;44459;43.522;24.470;2023-03-20T03:45:45;100478.91;;;1.90;100.00
57572;BME280;44459;43.522;24.470;2023-03-20T03:48:18;100469.31;;;1.89;100.00
57572;BME280;44459;43.522;24.470;2023-03-20T03:50:52;100475.41;;;1.90;100.00
57572;BME280;44459;43.522;24.470;2023-03-20T03:53:24;100471.69;;;1.85;100.00
57572;BME280;44459;43.522;24.470;2023-03-20T03:55:54;100476.97;;;1.86;100.00
57572;BME280;44459;43.522;24.470;2023-03-20T03:58:32;100470.63;;;1.80;100.00
57572;BME280;44459;43.522;24.470;2023-03-20T04:01:02;100483.00;;;1.85;100.00
57572;BME280;44459;43.522;24.470;2023-03-20T04:03:35;100480.13;;;1.79;100.00
57572;BME280;44459;43.522;24.470;2023-03-20T04:06:02;100488.97;;;1.83;100.00
57572;BME280;44459;43.522;24.470;2023-03-20T04:08:28;100473.00;;;1.75;100.00
57572;BME280;44459;43.522;24.470;2023-03-20T04:10:54;100482.78;;;1.81;100.00
57572;BME280;44459;43.522;24.470;2023-03-20T04:13:19;100477.56;;;1.81;100.00
57572;BME280;44459;43.522;24.470;2023-03-20T04:15:45;100487.25;;;1.83;100.00
57572;BME280;44459;43.522;24.470;2023-03-20T04:18:15;100488.19;;;1.85;100.00
57572;BME280;44459;43.522;24.470;2023-03-20T04:20:42;100484.56;;;1.82;100.00
57572;BME280;44459;43.522;24.470;2023-03-20T04:23:08;100488.19;;;1.85;100.00
57572;BME280;44459;43.522;24.470;2023-03-20T04:25:33;100483.75;;;1.83;100.00
57572;BME280;44459;43.522;24.470;2023-03-20T04:27:59;100491.56;;;1.83;100.00
57572;BME280;44459;43.522;24.470;2023-03-20T04:30:24;100488.16;;;1.84;100.00
57572;BME280;44459;43.522;24.470;2023-03-20T04:32:50;100486.09;;;1.77;100.00
57572;BME280;44459;43.522;24.470;2023-03-20T04:35:15;100487.81;;;1.76;100.00
57572;BME280;44459;43.522;24.470;2023-03-20T04:37:41;100480.91;;;1.77;100.00
57572;BME280;44459;43.522;24.470;2023-03-20T04:40:06;100485.47;;;1.82;100.00
57572;BME280;44459;43.522;24.470;2023-03-20T04:42:32;100484.78;;;1.86;100.00
57572;BME280;44459;43.522;24.470;2023-03-20T04:44:58;100484.09;;;1.90;100.00
57572;BME280;44459;43.522;24.470;2023-03-20T04:47:23;100491.00;;;1.90;100.00
57572;BME280;44459;43.522;24.470;2023-03-20T04:49:48;100493.19;;;2.00;100.00
57572;BME280;44459;43.522;24.470;2023-03-20T04:52:14;100495.13;;;2.04;100.00
57572;BME280;44459;43.522;24.470;2023-03-20T04:54:40;100504.00;;;2.09;100.00
57572;BME280;44459;43.522;24.470;2023-03-20T04:57:05;100501.63;;;2.14;100.00
57572;BME280;44459;43.522;24.470;2023-03-20T04:59:31;100498.38;;;2.19;100.00
57572;BME280;44459;43.522;24.470;2023-03-20T05:01:56;100512.63;;;2.27;100.00
57572;BME280;44459;43.522;24.470;2023-03-20T05:04:22;100516.34;;;2.32;100.00
57572;BME280;44459;43.522;24.470;2023-03-20T05:06:47;100511.38;;;2.38;100.00
57572;BME280;44459;43.522;24.470;2023-03-20T05:09:14;100511.63;;;2.44;100.00
57572;BME280;44459;43.522;24.470;2023-03-20T05:11:41;100503.13;;;2.48;100.00
57572;BME280;44459;43.522;24.470;2023-03-20T05:14:06;100499.13;;;2.57;100.00
57572;BME280;44459;43.522;24.470;2023-03-20T05:16:32;100498.94;;;2.73;100.00
57572;BME280;44459;43.522;24.470;2023-03-20T05:18:57;100506.50;;;2.87;100.00
57572;BME280;44459;43.522;24.470;2023-03-20T05:21:23;100508.19;;;3.08;100.00
57572;BME280;44459;43.522;24.470;2023-03-20T05:23:48;100510.81;;;3.30;100.00
57572;BME280;44459;43.522;24.470;2023-03-20T05:26:14;100511.72;;;3.52;100.00
57572;BME280;44459;43.522;24.470;2023-03-20T05:28:40;100501.09;;;3.70;100.00
57572;BME280;44459;43.522;24.470;2023-03-20T05:31:05;100507.03;;;3.90;100.00
57572;BME280;44459;43.522;24.470;2023-03-20T05:33:31;100517.38;;;4.11;100.00
57572;BME280;44459;43.522;24.470;2023-03-20T05:35:56;100516.34;;;4.31;100.00
57572;BME280;44459;43.522;24.470;2023-03-20T05:38:22;100525.81;;;4.51;99.71
57572;BME280;44459;43.522;24.470;2023-03-20T05:40:48;100532.59;;;4.71;98.93
57572;BME280;44459;43.522;24.470;2023-03-20T05:43:14;100533.44;;;4.95;96.19
57572;BME280;44459;43.522;24.470;2023-03-20T05:45:41;100529.53;;;5.10;95.73
57572;BME280;44459;43.522;24.470;2023-03-20T05:48:07;100536.28;;;5.30;94.34
57572;BME280;44459;43.522;24.470;2023-03-20T05:50:32;100546.47;;;5.49;92.97
57572;BME280;44459;43.522;24.470;2023-03-20T05:52:58;100548.88;;;5.70;92.21
57572;BME280;44459;43.522;24.470;2023-03-20T05:55:23;100543.31;;;5.86;90.71
57572;BME280;44459;43.522;24.470;2023-03-20T05:57:48;100540.38;;;6.05;90.54
57572;BME280;44459;43.522;24.470;2023-03-20T06:00:14;100537.53;;;6.27;89.77
57572;BME280;44459;43.522;24.470;2023-03-20T06:02:40;100539.25;;;6.58;89.22
57572;BME280;44459;43.522;24.470;2023-03-20T06:05:06;100539.00;;;6.82;87.42
57572;BME280;44459;43.522;24.470;2023-03-20T06:07:31;100536.03;;;7.02;87.03
57572;BME280;44459;43.522;24.470;2023-03-20T06:09:57;100537.72;;;7.35;86.74
57572;BME280;44459;43.522;24.470;2023-03-20T06:12:22;100540.13;;;7.65;85.46
57572;BME280;44459;43.522;24.470;2023-03-20T06:14:48;100545.22;;;7.94;84.91
57572;BME280;44459;43.522;24.470;2023-03-20T06:17:13;100540.53;;;8.23;84.70
57572;BME280;44459;43.522;24.470;2023-03-20T06:19:39;100535.09;;;8.56;84.46
57572;BME280;44459;43.522;24.470;2023-03-20T06:22:04;100537.28;;;8.80;83.64
57572;BME280;44459;43.522;24.470;2023-03-20T06:24:30;100533.34;;;9.04;82.61
57572;BME280;44459;43.522;24.470;2023-03-20T06:26:55;100538.97;;;9.27;82.04
57572;BME280;44459;43.522;24.470;2023-03-20T06:29:21;100542.81;;;9.49;81.11
57572;BME280;44459;43.522;24.470;2023-03-20T06:31:46;100526.44;;;9.70;80.34
57572;BME280;44459;43.522;24.470;2023-03-20T06:34:12;100530.34;;;9.96;79.30
57572;BME280;44459;43.522;24.470;2023-03-20T06:36:37;100521.75;;;10.13;77.89
57572;BME280;44459;43.522;24.470;2023-03-20T06:39:03;100533.56;;;10.43;77.21
57572;BME280;44459;43.522;24.470;2023-03-20T06:41:28;100528.69;;;10.79;75.68
57572;BME280;44459;43.522;24.470;2023-03-20T06:43:54;100523.72;;;11.13;74.25
57572;BME280;44459;43.522;24.470;2023-03-20T06:46:20;100531.78;;;11.32;74.17
57572;BME280;44459;43.522;24.470;2023-03-20T06:48:46;100518.75;;;11.59;72.82
57572;BME280;44459;43.522;24.470;2023-03-20T06:51:12;100519.84;;;11.83;72.23
57572;BME280;44459;43.522;24.470;2023-03-20T06:53:38;100527.03;;;12.09;72.84
57572;BME280;44459;43.522;24.470;2023-03-20T06:56:06;100534.22;;;12.38;68.22
57572;BME280;44459;43.522;24.470;2023-03-20T06:58:32;100539.53;;;12.47;69.86
57572;BME280;44459;43.522;24.470;2023-03-20T07:00:57;100537.81;;;12.75;68.79
57572;BME280;44459;43.522;24.470;2023-03-20T07:03:24;100541.41;;;12.90;67.21
57572;BME280;44459;43.522;24.470;2023-03-20T07:05:49;100527.25;;;12.76;67.92
57572;BME280;44459;43.522;24.470;2023-03-20T07:08:15;100540.50;;;12.82;67.43
57572;BME280;44459;43.522;24.470;2023-03-20T07:10:40;100532.56;;;12.88;66.42
57572;BME280;44459;43.522;24.470;2023-03-20T07:13:06;100529.91;;;13.02;66.15
57572;BME280;44459;43.522;24.470;2023-03-20T07:15:31;100532.63;;;13.25;65.72
57572;BME280;44459;43.522;24.470;2023-03-20T07:17:57;100534.41;;;13.50;65.08
57572;BME280;44459;43.522;24.470;2023-03-20T07:20:23;100538.75;;;13.87;63.91
57572;BME280;44459;43.522;24.470;2023-03-20T07:22:48;100535.94;;;14.36;63.09
57572;BME280;44459;43.522;24.470;2023-03-20T07:25:14;100530.53;;;14.57;62.06
57572;BME280;44459;43.522;24.470;2023-03-20T07:27:39;100528.69;;;14.71;61.83
57572;BME280;44459;43.522;24.470;2023-03-20T07:30:05;100528.53;;;14.89;60.85
57572;BME280;44459;43.522;24.470;2023-03-20T07:32:31;100523.91;;;15.20;60.03
57572;BME280;44459;43.522;24.470;2023-03-20T07:34:57;100518.44;;;15.37;58.03
57572;BME280;44459;43.522;24.470;2023-03-20T07:37:22;100513.81;;;15.62;57.52
57572;BME280;44459;43.522;24.470;2023-03-20T07:39:48;100528.75;;;15.75;56.89
57572;BME280;44459;43.522;24.470;2023-03-20T07:42:14;100520.50;;;15.97;57.24
57572;BME280;44459;43.522;24.470;2023-03-20T07:44:40;100521.63;;;16.50;57.79
57572;BME280;44459;43.522;24.470;2023-03-20T07:47:05;100529.91;;;16.94;56.81
57572;BME280;44459;43.522;24.470;2023-03-20T07:49:31;100521.28;;;17.32;55.05
57572;BME280;44459;43.522;24.470;2023-03-20T07:51:57;100520.81;;;17.63;52.55
57572;BME280;44459;43.522;24.470;2023-03-20T07:54:23;100515.56;;;17.56;50.79
57572;BME280;44459;43.522;24.470;2023-03-20T07:56:48;100514.28;;;17.77;50.73
57572;BME280;44459;43.522;24.470;2023-03-20T07:59:15;100521.75;;;18.06;49.83
57572;BME280;44459;43.522;24.470;2023-03-20T08:01:40;100526.31;;;18.44;49.25
57572;BME280;44459;43.522;24.470;2023-03-20T08:04:06;100519.25;;;18.81;48.11
57572;BME280;44459;43.522;24.470;2023-03-20T08:06:31;100508.34;;;19.27;47.47
57572;BME280;44459;43.522;24.470;2023-03-20T08:08:57;100512.88;;;19.93;46.54
57572;BME280;44459;43.522;24.470;2023-03-20T08:11:22;100518.97;;;20.61;45.37
57572;BME280;44459;43.522;24.470;2023-03-20T08:13:48;100510.88;;;21.20;44.08
57572;BME280;44459;43.522;24.470;2023-03-20T08:16:13;100524.50;;;21.92;41.83
57572;BME280;44459;43.522;24.470;2023-03-20T08:18:39;100531.56;;;22.20;40.02
57572;BME280;44459;43.522;24.470;2023-03-20T08:21:04;100524.69;;;22.36;39.50
57572;BME280;44459;43.522;24.470;2023-03-20T08:23:30;100524.63;;;21.37;40.14
57572;BME280;44459;43.522;24.470;2023-03-20T08:25:55;100526.47;;;19.53;44.48
57572;BME280;44459;43.522;24.470;2023-03-20T08:28:21;100540.63;;;18.41;47.64
57572;BME280;44459;43.522;24.470;2023-03-20T08:30:47;100529.03;;;17.49;50.20
57572;BME280;44459;43.522;24.470;2023-03-20T08:33:15;100536.91;;;17.03;52.60
57572;BME280;44459;43.522;24.470;2023-03-20T08:35:41;100534.88;;;16.59;53.48
57572;BME280;44459;43.522;24.470;2023-03-20T08:38:10;100537.38;;;15.98;55.63
57572;BME280;44459;43.522;24.470;2023-03-20T08:40:39;100536.81;;;15.66;55.99
57572;BME280;44459;43.522;24.470;2023-03-20T08:43:05;100532.81;;;15.16;58.67
57572;BME280;44459;43.522;24.470;2023-03-20T08:45:30;100531.13;;;15.00;58.25
57572;BME280;44459;43.522;24.470;2023-03-20T08:47:55;100531.16;;;14.97;58.84
57572;BME280;44459;43.522;24.470;2023-03-20T08:50:21;100530.41;;;14.78;59.90
57572;BME280;44459;43.522;24.470;2023-03-20T08:52:46;100534.03;;;14.67;60.14
57572;BME280;44459;43.522;24.470;2023-03-20T08:55:13;100520.81;;;14.48;59.89
57572;BME280;44459;43.522;24.470;2023-03-20T08:57:39;100528.84;;;14.39;60.67
57572;BME280;44459;43.522;24.470;2023-03-20T09:00:07;100521.78;;;14.35;59.97
57572;BME280;44459;43.522;24.470;2023-03-20T09:02:35;100523.44;;;14.54;59.36
57572;BME280;44459;43.522;24.470;2023-03-20T09:05:01;100518.22;;;14.38;59.44
57572;BME280;44459;43.522;24.470;2023-03-20T09:07:27;100520.88;;;14.42;60.31
57572;BME280;44459;43.522;24.470;2023-03-20T09:09:52;100514.63;;;14.54;59.62
57572;BME280;44459;43.522;24.470;2023-03-20T09:12:17;100515.47;;;14.56;60.01
57572;BME280;44459;43.522;24.470;2023-03-20T09:14:43;100510.06;;;14.74;60.05
57572;BME280;44459;43.522;24.470;2023-03-20T09:17:09;100515.22;;;14.97;58.20
57572;BME280;44459;43.522;24.470;2023-03-20T09:19:34;100500.09;;;15.05;57.49
57572;BME280;44459;43.522;24.470;2023-03-20T09:22:03;100501.91;;;14.98;56.96
57572;BME280;44459;43.522;24.470;2023-03-20T09:24:29;100502.72;;;15.08;57.71
57572;BME280;44459;43.522;24.470;2023-03-20T09:26:55;100500.06;;;15.06;59.89
57572;BME280;44459;43.522;24.470;2023-03-20T09:29:21;100493.75;;;15.23;59.56
57572;BME280;44459;43.522;24.470;2023-03-20T09:31:46;100494.50;;;15.37;58.96
57572;BME280;44459;43.522;24.470;2023-03-20T09:34:11;100494.41;;;15.46;57.20
57572;BME280;44459;43.522;24.470;2023-03-20T09:36:37;100490.91;;;15.38;56.77
57572;BME280;44459;43.522;24.470;2023-03-20T09:39:03;100483.75;;;15.47;57.29
57572;BME280;44459;43.522;24.470;2023-03-20T09:41:28;100493.47;;;15.53;56.33
57572;BME280;44459;43.522;24.470;2023-03-20T09:44:45;100488.06;;;15.62;57.72
57572;BME280;44459;43.522;24.470;2023-03-20T09:47:39;100488.94;;;15.64;55.08
57572;BME280;44459;43.522;24.470;2023-03-20T09:52:58;100465.13;;;15.46;57.64
57572;BME280;44459;43.522;24.470;2023-03-20T09:55:36;100467.56;;;15.70;56.79
57572;BME280;44459;43.522;24.470;2023-03-20T09:58:12;100462.09;;;15.84;55.05
57572;BME280;44459;43.522;24.470;2023-03-20T10:00:42;100472.66;;;15.93;54.34
57572;BME280;44459;43.522;24.470;2023-03-20T10:03:20;100453.13;;;15.92;53.31
57572;BME280;44459;43.522;24.470;2023-03-20T10:05:59;100457.31;;;16.13;55.02
57572;BME280;44459;43.522;24.470;2023-03-20T10:08:31;100460.69;;;16.26;54.72
57572;BME280;44459;43.522;24.470;2023-03-20T10:14:15;100442.53;;;16.53;54.21
57572;BME280;44459;43.522;24.470;2023-03-20T10:19:48;100440.28;;;16.86;53.07
57572;BME280;44459;43.522;24.470;2023-03-20T10:22:21;100437.56;;;16.89;50.79
57572;BME280;44459;43.522;24.470;2023-03-20T10:25:31;100427.13;;;16.75;49.17
57572;BME280;44459;43.522;24.470;2023-03-20T10:28:00;100432.56;;;16.68;49.80
57572;BME280;44459;43.522;24.470;2023-03-20T10:41:37;100405.06;;;17.16;52.21
57572;BME280;44459;43.522;24.470;2023-03-20T10:44:05;100413.69;;;17.32;50.42
57572;BME280;44459;43.522;24.470;2023-03-20T10:46:41;100412.63;;;17.40;49.29
57572;BME280;44459;43.522;24.470;2023-03-20T10:49:17;100408.13;;;17.42;47.29
57572;BME280;44459;43.522;24.470;2023-03-20T10:51:50;100400.22;;;17.38;47.84
57572;BME280;44459;43.522;24.470;2023-03-20T10:54:28;100385.09;;;17.38;47.00
57572;BME280;44459;43.522;24.470;2023-03-20T10:56:58;100389.44;;;17.42;46.24
57572;BME280;44459;43.522;24.470;2023-03-20T10:59:36;100383.97;;;17.50;48.28
57572;BME280;44459;43.522;24.470;2023-03-20T11:02:09;100384.84;;;17.52;48.69
57572;BME280;44459;43.522;24.470;2023-03-20T11:04:35;100383.97;;;17.50;50.14
57572;BME280;44459;43.522;24.470;2023-03-20T11:10:07;100370.91;;;17.36;49.01
57572;BME280;44459;43.522;24.470;2023-03-20T11:12:44;100370.94;;;17.35;51.11
57572;BME280;44459;43.522;24.470;2023-03-20T11:15:45;100366.44;;;17.37;51.17
57572;BME280;44459;43.522;24.470;2023-03-20T11:18:11;100352.28;;;17.33;48.18
57572;BME280;44459;43.522;24.470;2023-03-20T11:20:45;100356.66;;;17.36;49.94
57572;BME280;44459;43.522;24.470;2023-03-20T11:23:16;100348.44;;;17.46;50.06
57572;BME280;44459;43.522;24.470;2023-03-20T11:25:56;100345.69;;;17.51;48.84
57572;BME280;44459;43.522;24.470;2023-03-20T11:30:49;100337.88;;;17.42;48.67
57572;BME280;44459;43.522;24.470;2023-03-20T11:33:15;100338.53;;;17.53;48.82
57572;BME280;44459;43.522;24.470;2023-03-20T11:35:45;100344.63;;;17.61;49.94
57572;BME280;44459;43.522;24.470;2023-03-20T11:38:16;100336.63;;;17.61;48.59
57572;BME280;44459;43.522;24.470;2023-03-20T11:40:45;100339.06;;;17.72;50.08
57572;BME280;44459;43.522;24.470;2023-03-20T11:43:18;100335.50;;;17.73;47.25
57572;BME280;44459;43.522;24.470;2023-03-20T11:45:58;100335.13;;;17.88;48.65
57572;BME280;44459;43.522;24.470;2023-03-20T11:48:45;100323.25;;;18.02;46.96
57572;BME280;44459;43.522;24.470;2023-03-20T11:51:18;100322.28;;;18.05;47.16
57572;BME280;44459;43.522;24.470;2023-03-20T12:01:23;100306.94;;;18.15;42.54
57572;BME280;44459;43.522;24.470;2023-03-20T12:03:50;100300.56;;;18.20;41.28
57572;BME280;44459;43.522;24.470;2023-03-20T12:06:27;100300.53;;;18.22;38.99
57572;BME280;44459;43.522;24.470;2023-03-20T12:09:04;100302.69;;;18.43;38.10
57572;BME280;44459;43.522;24.470;2023-03-20T12:11:44;100295.06;;;18.63;37.21
57572;BME280;44459;43.522;24.470;2023-03-20T12:14:22;100291.97;;;18.78;36.77
57572;BME280;44459;43.522;24.470;2023-03-20T12:16:56;100279.31;;;18.85;39.08
57572;BME280;44459;43.522;24.470;2023-03-20T12:19:27;100284.38;;;18.95;37.76
57572;BME280;44459;43.522;24.470;2023-03-20T12:22:02;100286.06;;;18.99;38.03
57572;BME280;44459;43.522;24.470;2023-03-20T12:24:36;100283.97;;;19.10;39.04
57572;BME280;44459;43.522;24.470;2023-03-20T12:27:16;100283.16;;;19.08;37.73
57572;BME280;44459;43.522;24.470;2023-03-20T12:29:45;100278.63;;;19.10;39.32
57572;BME280;44459;43.522;24.470;2023-03-20T12:32:34;100273.28;;;19.09;38.69
57572;BME280;44459;43.522;24.470;2023-03-20T12:37:35;100258.97;;;19.12;38.34
57572;BME280;44459;43.522;24.470;2023-03-20T12:40:01;100254.66;;;19.06;37.18
57572;BME280;44459;43.522;24.470;2023-03-20T12:45:18;100247.81;;;19.27;36.23
57572;BME280;44459;43.522;24.470;2023-03-20T12:50:56;100249.19;;;19.41;35.36
57572;BME280;44459;43.522;24.470;2023-03-20T12:53:45;100248.50;;;19.33;35.27
57572;BME280;44459;43.522;24.470;2023-03-20T12:59:36;100239.28;;;19.45;34.97
57572;BME280;44459;43.522;24.470;2023-03-20T13:13:32;100217.50;;;19.57;35.23
57572;BME280;44459;43.522;24.470;2023-03-20T13:19:01;100214.63;;;19.91;35.64
57572;BME280;44459;43.522;24.470;2023-03-20T13:26:44;100209.13;;;19.95;35.79
57572;BME280;44459;43.522;24.470;2023-03-20T13:34:55;100200.34;;;20.17;36.02
57572;BME280;44459;43.522;24.470;2023-03-20T13:37:39;100202.84;;;20.23;35.01
57572;BME280;44459;43.522;24.470;2023-03-20T13:40:19;100193.78;;;20.27;34.47
57572;BME280;44459;43.522;24.470;2023-03-20T13:45:26;100171.63;;;20.20;34.93
57572;BME280;44459;43.522;24.470;2023-03-20T13:47:53;100181.00;;;20.35;32.28
57572;BME280;44459;43.522;24.470;2023-03-20T13:50:30;100186.22;;;20.39;32.80
57572;BME280;44459;43.522;24.470;2023-03-20T13:53:05;100182.63;;;20.40;33.13
57572;BME280;44459;43.522;24.470;2023-03-20T14:01:38;100179.63;;;20.97;30.83
57572;BME280;44459;43.522;24.470;2023-03-20T14:04:11;100177.34;;;22.43;28.73
57572;BME280;44459;43.522;24.470;2023-03-20T14:06:51;100171.94;;;23.62;27.41
57572;BME280;44459;43.522;24.470;2023-03-20T14:12:02;100163.06;;;24.66;24.83
57572;BME280;44459;43.522;24.470;2023-03-20T14:14:56;100158.63;;;25.15;24.84
57572;BME280;44459;43.522;24.470;2023-03-20T14:17:28;100142.84;;;25.07;25.91
57572;BME280;44459;43.522;24.470;2023-03-20T14:19:55;100153.94;;;25.18;25.39
57572;BME280;44459;43.522;24.470;2023-03-20T14:22:29;100145.28;;;25.60;26.35
57572;BME280;44459;43.522;24.470;2023-03-20T14:25:03;100145.63;;;25.54;25.01
57572;BME280;44459;43.522;24.470;2023-03-20T14:27:35;100143.81;;;25.37;27.64
57572;BME280;44459;43.522;24.470;2023-03-20T14:32:59;100137.56;;;24.88;26.05
57572;BME280;44459;43.522;24.470;2023-03-20T14:35:26;100134.28;;;24.82;26.28
57572;BME280;44459;43.522;24.470;2023-03-20T14:40:59;100120.53;;;24.19;25.41
57572;BME280;44459;43.522;24.470;2023-03-20T14:44:03;100114.84;;;23.89;26.16
57572;BME280;44459;43.522;24.470;2023-03-20T14:49:23;100107.13;;;23.46;25.63
57572;BME280;44459;43.522;24.470;2023-03-20T14:51:57;100121.00;;;22.99;25.80
57572;BME280;44459;43.522;24.470;2023-03-20T14:54:28;100110.94;;;22.64;26.45
57572;BME280;44459;43.522;24.470;2023-03-20T14:56:55;100113.50;;;22.27;27.77
57572;BME280;44459;43.522;24.470;2023-03-20T14:59:32;100120.97;;;22.20;27.83
57572;BME280;44459;43.522;24.470;2023-03-20T15:01:59;100110.28;;;22.39;26.65
57572;BME280;44459;43.522;24.470;2023-03-20T15:04:38;100121.03;;;22.39;26.98